Time;durP1;ratioP1;P1;durP2;ratioP2;P2;SDS_P1;SDS_P2;PMS_P1;PMS_P2;Temp;Humidity;BMP_temperature;BMP_pressure;BME280_temperature;BME280_humidity;BME280_pressure;Samples;Min_cycle;Max_cycle;Signal;HPM_P1;HPM_P2
2022/02/24 00:00:26;;;;;;;24.27;9.30;;;;;;;;;;5016099;28;20291;-78
2022/02/24 00:02:53;;;;;;;22.57;9.20;;;;;;;;;;5019307;28;20284;-78
2022/02/24 00:05:20;;;;;;;21.47;9.33;;;;;;;;;;5020568;28;20271;-78
2022/02/24 00:07:47;;;;;;;23.93;9.57;;;;;;;;;;5024214;28;20295;-78
2022/02/24 00:10:17;;;;;;;21.43;9.77;;;;;;;;;;5026656;28;20296;-78
2022/02/24 00:12:45;;;;;;;28.07;10.20;;;;;;;;;;5013547;28;20227;-78
2022/02/24 00:15:12;;;;;;;21.77;9.33;;;;;;;;;;5016006;28;20649;-78
2022/02/24 00:17:40;;;;;;;22.47;9.97;;;;;;;;;;5015916;28;20323;-78
2022/02/24 00:20:08;;;;;;;25.77;10.20;;;;;;;;;;5010208;28;20204;-78
2022/02/24 00:22:35;;;;;;;24.70;9.57;;;;;;;;;;5015381;28;20310;-78
2022/02/24 00:25:03;;;;;;;22.67;9.07;;;;;;;;;;5014586;28;20302;-78
2022/02/24 00:27:30;;;;;;;20.80;8.73;;;;;;;;;;5015669;28;20291;-78
2022/02/24 00:29:59;;;;;;;21.37;9.63;;;;;;;;;;5016216;28;20229;-78
2022/02/24 00:32:26;;;;;;;24.50;9.40;;;;;;;;;;5015816;28;20287;-78
2022/02/24 00:34:54;;;;;;;23.53;9.97;;;;;;;;;;5002797;28;20290;-78
2022/02/24 00:37:21;;;;;;;25.93;9.87;;;;;;;;;;5014511;28;20224;-79
2022/02/24 00:39:48;;;;;;;30.83;10.63;;;;;;;;;;5015063;28;20744;-78
2022/02/24 00:42:15;;;;;;;30.17;9.83;;;;;;;;;;5011438;28;20324;-78
2022/02/24 00:44:43;;;;;;;23.23;9.60;;;;;;;;;;5020508;22;20809;-77
2022/02/24 00:47:11;;;;;;;24.80;9.67;;;;;;;;;;5001072;28;20232;-77
2022/02/24 00:49:39;;;;;;;25.23;9.13;;;;;;;;;;4999593;28;20212;-78
2022/02/24 00:52:07;;;;;;;25.50;9.63;;;;;;;;;;4998938;28;20931;-77
2022/02/24 00:54:35;;;;;;;23.23;9.00;;;;;;;;;;4994741;28;20704;-77
2022/02/24 00:57:02;;;;;;;26.40;9.80;;;;;;;;;;4997172;28;20208;-78
2022/02/24 00:59:30;;;;;;;24.07;9.57;;;;;;;;;;4991216;28;20288;-77
2022/02/24 01:01:57;;;;;;;24.03;9.47;;;;;;;;;;4993812;28;20263;-77
2022/02/24 01:04:25;;;;;;;27.10;9.33;;;;;;;;;;4994812;28;20197;-77
2022/02/24 01:06:52;;;;;;;24.43;9.73;;;;;;;;;;4991888;28;20212;-77
2022/02/24 01:09:20;;;;;;;23.00;8.63;;;;;;;;;;4999814;28;20204;-78
2022/02/24 01:11:47;;;;;;;21.63;8.97;;;;;;;;;;5000302;28;20224;-77
2022/02/24 01:14:14;;;;;;;22.70;8.80;;;;;;;;;;5000118;28;20201;-77
2022/02/24 01:16:41;;;;;;;25.40;9.13;;;;;;;;;;4996591;28;20671;-76
2022/02/24 01:19:08;;;;;;;24.77;8.97;;;;;;;;;;5000000;28;20236;-77
2022/02/24 01:21:37;;;;;;;20.90;9.60;;;;;;;;;;4999461;28;20230;-78
2022/02/24 01:24:04;;;;;;;21.17;9.23;;;;;;;;;;5000372;28;20209;-77
2022/02/24 01:26:31;;;;;;;26.27;9.07;;;;;;;;;;4996982;28;20211;-77
2022/02/24 01:28:58;;;;;;;27.30;9.17;;;;;;;;;;5002818;28;20682;-78
2022/02/24 01:31:25;;;;;;;20.93;9.70;;;;;;;;;;5002541;28;20234;-78
2022/02/24 01:33:53;;;;;;;24.73;9.77;;;;;;;;;;5003989;28;20204;-78
2022/02/24 01:36:20;;;;;;;27.00;9.93;;;;;;;;;;4997616;28;20278;-78
2022/02/24 01:38:49;;;;;;;18.20;8.67;;;;;;;;;;4998763;28;20232;-77
2022/02/24 01:41:16;;;;;;;22.47;10.37;;;;;;;;;;5001166;28;20295;-77
2022/02/24 01:43:44;;;;;;;21.53;9.60;;;;;;;;;;5001762;28;20208;-76
2022/02/24 01:46:11;;;;;;;25.97;10.13;;;;;;;;;;5002450;28;20620;-77
2022/02/24 01:48:39;;;;;;;22.70;9.37;;;;;;;;;;4996798;28;20196;-77
2022/02/24 01:51:06;;;;;;;22.93;9.23;;;;;;;;;;5000547;28;20299;-78
2022/02/24 01:53:35;;;;;;;23.33;9.23;;;;;;;;;;5000643;28;20209;-80
2022/02/24 01:56:04;;;;;;;24.10;9.70;;;;;;;;;;5003504;28;20204;-76
2022/02/24 01:58:31;;;;;;;29.70;9.03;;;;;;;;;;5002802;28;20381;-78
2022/02/24 02:00:58;;;;;;;22.33;9.67;;;;;;;;;;4996336;28;20630;-77
2022/02/24 02:03:25;;;;;;;21.17;9.23;;;;;;;;;;5002379;28;20204;-77
2022/02/24 02:05:53;;;;;;;24.17;9.27;;;;;;;;;;4998246;28;20205;-77
2022/02/24 02:08:21;;;;;;;21.77;9.00;;;;;;;;;;4996797;28;20197;-77
2022/02/24 02:10:48;;;;;;;24.87;8.43;;;;;;;;;;4991282;28;20212;-77
2022/02/24 02:13:16;;;;;;;18.90;8.60;;;;;;;;;;4991655;28;20310;-76
2022/02/24 02:15:43;;;;;;;22.30;8.93;;;;;;;;;;4992012;28;20209;-76
2022/02/24 02:18:10;;;;;;;25.97;9.37;;;;;;;;;;4992690;28;20936;-75
2022/02/24 02:20:40;;;;;;;21.50;8.97;;;;;;;;;;4990789;28;20671;-76
2022/02/24 02:23:08;;;;;;;27.67;8.33;;;;;;;;;;4986083;28;20236;-75
2022/02/24 02:25:35;;;;;;;23.43;8.73;;;;;;;;;;4994652;28;20253;-77
2022/02/24 02:28:02;;;;;;;22.83;9.20;;;;;;;;;;4995788;28;20291;-77
2022/02/24 02:30:30;;;;;;;22.33;8.40;;;;;;;;;;4995462;28;20334;-76
2022/02/24 02:32:58;;;;;;;20.10;8.97;;;;;;;;;;4990740;28;20232;-75
2022/02/24 02:35:26;;;;;;;20.70;8.50;;;;;;;;;;4994621;28;20204;-76
2022/02/24 02:37:54;;;;;;;20.57;8.40;;;;;;;;;;4995650;28;20252;-78
2022/02/24 02:40:22;;;;;;;20.67;8.80;;;;;;;;;;4991725;28;20216;-76
2022/02/24 02:42:50;;;;;;;20.40;8.57;;;;;;;;;;4991459;28;20562;-76
2022/02/24 02:45:17;;;;;;;20.97;8.70;;;;;;;;;;4991525;28;20221;-76
2022/02/24 02:47:45;;;;;;;22.07;8.83;;;;;;;;;;4994432;28;20205;-75
2022/02/24 02:50:12;;;;;;;20.70;8.63;;;;;;;;;;4992970;28;20215;-75
2022/02/24 02:52:40;;;;;;;18.43;8.20;;;;;;;;;;4999155;28;20231;-76
2022/02/24 02:55:09;;;;;;;21.67;8.83;;;;;;;;;;5008237;28;20613;-78
2022/02/24 02:57:37;;;;;;;27.63;8.83;;;;;;;;;;5003756;28;20197;-80
2022/02/24 03:00:05;;;;;;;21.70;8.43;;;;;;;;;;5004251;28;20559;-80
2022/02/24 03:02:32;;;;;;;20.83;8.57;;;;;;;;;;5000341;28;20231;-76
2022/02/24 03:04:59;;;;;;;18.80;8.00;;;;;;;;;;5003685;28;20572;-78
2022/02/24 03:07:27;;;;;;;19.77;8.67;;;;;;;;;;5004428;28;20678;-79
2022/02/24 03:09:54;;;;;;;21.07;9.00;;;;;;;;;;5001186;28;20211;-78
2022/02/24 03:12:22;;;;;;;25.17;9.57;;;;;;;;;;5003145;28;20224;-79
2022/02/24 03:14:49;;;;;;;18.60;8.53;;;;;;;;;;4999744;28;20204;-78
2022/02/24 03:17:17;;;;;;;20.27;8.47;;;;;;;;;;5002418;28;20211;-78
2022/02/24 03:19:44;;;;;;;25.60;8.70;;;;;;;;;;5006420;28;20698;-78
2022/02/24 03:22:12;;;;;;;19.17;8.20;;;;;;;;;;5007038;28;20220;-79
2022/02/24 03:24:39;;;;;;;27.63;8.47;;;;;;;;;;5005134;28;20219;-78
2022/02/24 03:27:07;;;;;;;24.10;8.53;;;;;;;;;;5005290;28;20547;-78
2022/02/24 03:29:36;;;;;;;19.30;8.40;;;;;;;;;;5003480;28;20671;-78
2022/02/24 03:32:03;;;;;;;21.73;8.60;;;;;;;;;;5003417;28;20225;-79
2022/02/24 03:34:31;;;;;;;18.53;8.47;;;;;;;;;;4998166;28;20205;-78
2022/02/24 03:36:58;;;;;;;22.07;8.53;;;;;;;;;;5001485;28;20260;-78
2022/02/24 03:39:28;;;;;;;21.93;8.77;;;;;;;;;;4999401;28;20226;-78
2022/02/24 03:41:55;;;;;;;22.20;8.20;;;;;;;;;;4996736;28;20254;-78
2022/02/24 03:44:22;;;;;;;24.53;8.87;;;;;;;;;;4994371;28;20291;-78
2022/02/24 03:46:51;;;;;;;19.83;8.40;;;;;;;;;;4999820;28;20583;-78
2022/02/24 03:49:18;;;;;;;23.27;9.07;;;;;;;;;;4999141;28;20193;-78
2022/02/24 03:51:45;;;;;;;23.17;9.03;;;;;;;;;;4997100;28;20590;-78
2022/02/24 03:54:12;;;;;;;23.40;8.37;;;;;;;;;;4999395;28;20201;-79
2022/02/24 03:56:39;;;;;;;22.27;8.97;;;;;;;;;;5001433;28;20214;-78
2022/02/24 03:59:07;;;;;;;25.80;9.00;;;;;;;;;;5000466;28;20228;-78
2022/02/24 04:01:34;;;;;;;20.90;9.07;;;;;;;;;;5000110;28;20220;-79
2022/02/24 04:04:02;;;;;;;18.80;8.10;;;;;;;;;;5001936;28;20208;-79
2022/02/24 04:06:30;;;;;;;19.47;8.33;;;;;;;;;;5005707;28;20197;-78
2022/02/24 04:08:57;;;;;;;21.37;8.73;;;;;;;;;;5002461;28;20215;-79
2022/02/24 04:11:24;;;;;;;26.30;8.97;;;;;;;;;;4999608;28;20316;-80
2022/02/24 04:13:51;;;;;;;21.50;8.17;;;;;;;;;;5001662;28;20244;-78
2022/02/24 04:16:18;;;;;;;18.43;8.50;;;;;;;;;;5000229;28;20208;-78
2022/02/24 04:18:45;;;;;;;22.33;8.33;;;;;;;;;;4996972;28;20243;-80
2022/02/24 04:21:14;;;;;;;20.63;8.60;;;;;;;;;;5001497;28;20204;-79
2022/02/24 04:23:41;;;;;;;20.43;8.27;;;;;;;;;;5003723;28;20387;-78
2022/02/24 04:26:08;;;;;;;24.27;8.37;;;;;;;;;;5002201;28;20208;-79
2022/02/24 04:28:35;;;;;;;21.10;8.37;;;;;;;;;;5005522;28;20206;-78
2022/02/24 04:31:02;;;;;;;21.67;7.57;;;;;;;;;;4996960;28;20522;-78
2022/02/24 04:33:29;;;;;;;19.00;8.23;;;;;;;;;;4998393;28;20205;-78
2022/02/24 04:35:56;;;;;;;22.10;8.17;;;;;;;;;;5000692;28;20298;-79
2022/02/24 04:38:25;;;;;;;21.40;8.23;;;;;;;;;;4995831;28;20342;-77
2022/02/24 04:40:52;;;;;;;22.57;7.90;;;;;;;;;;5001162;28;20295;-78
2022/02/24 04:43:19;;;;;;;26.57;8.07;;;;;;;;;;5003888;28;20228;-77
2022/02/24 04:45:46;;;;;;;21.63;8.60;;;;;;;;;;4996903;28;20295;-78
2022/02/24 04:48:14;;;;;;;22.00;8.23;;;;;;;;;;5002593;28;20370;-78
2022/02/24 04:50:41;;;;;;;33.53;8.33;;;;;;;;;;5000643;28;20208;-78
2022/02/24 04:53:08;;;;;;;19.50;7.70;;;;;;;;;;4999088;28;20319;-78
2022/02/24 04:55:37;;;;;;;22.30;7.77;;;;;;;;;;5001007;28;20203;-78
2022/02/24 04:58:04;;;;;;;22.33;7.53;;;;;;;;;;5002251;28;20609;-78
2022/02/24 05:00:31;;;;;;;23.80;7.77;;;;;;;;;;4999037;28;20225;-78
2022/02/24 05:02:58;;;;;;;17.30;7.10;;;;;;;;;;5001071;28;20267;-79
2022/02/24 05:05:25;;;;;;;25.60;7.43;;;;;;;;;;5000234;28;20200;-79
2022/02/24 05:07:52;;;;;;;21.77;7.80;;;;;;;;;;5002298;28;20200;-78
2022/02/24 05:10:20;;;;;;;15.17;6.70;;;;;;;;;;5003765;28;20215;-78
2022/02/24 05:12:50;;;;;;;18.27;6.97;;;;;;;;;;5004675;28;20238;-79
2022/02/24 05:15:17;;;;;;;20.33;7.20;;;;;;;;;;5000822;28;20676;-79
2022/02/24 05:17:44;;;;;;;17.47;6.97;;;;;;;;;;5001852;28;20577;-77
2022/02/24 05:20:14;;;;;;;16.77;7.17;;;;;;;;;;4995751;28;20220;-78
2022/02/24 05:22:43;;;;;;;20.40;6.60;;;;;;;;;;4995862;28;20239;-79
2022/02/24 05:25:11;;;;;;;20.37;6.90;;;;;;;;;;5000144;28;20204;-79
2022/02/24 05:27:42;;;;;;;16.40;6.53;;;;;;;;;;4998309;28;20208;-78
2022/02/24 05:30:11;;;;;;;19.67;6.23;;;;;;;;;;4997307;28;20208;-78
2022/02/24 05:32:38;;;;;;;21.80;6.13;;;;;;;;;;4997436;28;20713;-79
2022/02/24 05:35:06;;;;;;;20.00;6.13;;;;;;;;;;4994053;28;20212;-78
2022/02/24 05:37:34;;;;;;;12.40;4.77;;;;;;;;;;4997054;28;20614;-78
2022/02/24 05:40:02;;;;;;;16.27;6.27;;;;;;;;;;4993700;28;20231;-77
2022/02/24 05:42:29;;;;;;;21.17;5.33;;;;;;;;;;4998174;28;20310;-78
2022/02/24 05:44:57;;;;;;;15.27;5.67;;;;;;;;;;4997008;28;20230;-77
2022/02/24 05:47:25;;;;;;;19.30;6.17;;;;;;;;;;4996191;28;20205;-76
2022/02/24 05:49:52;;;;;;;10.90;4.53;;;;;;;;;;4995825;28;20200;-76
2022/02/24 05:52:19;;;;;;;13.43;5.47;;;;;;;;;;4994341;28;20227;-77
2022/02/24 05:54:47;;;;;;;12.80;3.90;;;;;;;;;;4994871;28;20825;-78
2022/02/24 05:57:14;;;;;;;7.93;2.10;;;;;;;;;;4994035;28;20205;-76
2022/02/24 05:59:41;;;;;;;5.70;2.10;;;;;;;;;;4992333;28;21578;-77
2022/02/24 06:02:08;;;;;;;3.57;1.53;;;;;;;;;;4993303;28;20239;-75
2022/02/24 06:04:37;;;;;;;5.20;1.77;;;;;;;;;;4995579;28;20648;-77
2022/02/24 06:07:04;;;;;;;10.40;2.00;;;;;;;;;;4994622;28;20204;-77
2022/02/24 06:09:32;;;;;;;5.50;2.30;;;;;;;;;;4995877;28;20197;-77
2022/02/24 06:11:59;;;;;;;7.37;2.07;;;;;;;;;;4997083;28;20332;-76
2022/02/24 06:14:26;;;;;;;7.07;1.63;;;;;;;;;;4991154;28;20207;-77
2022/02/24 06:16:53;;;;;;;7.53;1.97;;;;;;;;;;4992757;28;20239;-76
2022/02/24 06:19:20;;;;;;;5.23;1.73;;;;;;;;;;4995686;28;20224;-76
2022/02/24 06:21:50;;;;;;;3.17;1.70;;;;;;;;;;4994064;28;20608;-77
2022/02/24 06:24:17;;;;;;;8.77;2.00;;;;;;;;;;5001301;28;20200;-77
2022/02/24 06:26:44;;;;;;;9.23;1.90;;;;;;;;;;4998092;28;20205;-77
2022/02/24 06:29:12;;;;;;;5.10;2.03;;;;;;;;;;4998118;28;20208;-76
2022/02/24 06:31:40;;;;;;;4.10;1.53;;;;;;;;;;4996150;28;20221;-77
2022/02/24 06:34:07;;;;;;;13.17;2.23;;;;;;;;;;4999530;28;20292;-78
2022/02/24 06:36:34;;;;;;;7.43;2.90;;;;;;;;;;4996243;28;20207;-77
2022/02/24 06:39:02;;;;;;;4.30;1.70;;;;;;;;;;4999481;28;20253;-75
2022/02/24 06:41:30;;;;;;;6.63;1.97;;;;;;;;;;4998351;28;20228;-75
2022/02/24 06:46:25;;;;;;;12.17;2.60;;;;;;;;;;4979696;28;20248;-77
2022/02/24 06:48:52;;;;;;;4.23;2.00;;;;;;;;;;4993805;28;20211;-78
2022/02/24 06:51:19;;;;;;;6.80;2.40;;;;;;;;;;4998424;28;20595;-78
2022/02/24 06:53:47;;;;;;;11.70;1.70;;;;;;;;;;4994489;28;20209;-78
2022/02/24 06:56:15;;;;;;;5.90;2.77;;;;;;;;;;4987967;28;20299;-78
2022/02/24 06:58:42;;;;;;;17.77;5.87;;;;;;;;;;4988969;28;20671;-78
2022/02/24 07:01:09;;;;;;;17.10;5.30;;;;;;;;;;4991732;28;20312;-78
2022/02/24 07:03:37;;;;;;;12.63;3.73;;;;;;;;;;4990952;28;20201;-78
2022/02/24 07:06:04;;;;;;;13.57;3.97;;;;;;;;;;4991350;28;20288;-79
2022/02/24 07:08:31;;;;;;;10.47;3.70;;;;;;;;;;4989485;28;20368;-78
2022/02/24 07:10:58;;;;;;;11.80;3.90;;;;;;;;;;4988398;28;20209;-78
2022/02/24 07:13:27;;;;;;;22.80;9.10;;;;;;;;;;4990973;28;20213;-79
2022/02/24 07:15:54;;;;;;;21.90;9.13;;;;;;;;;;4990562;28;20287;-79
2022/02/24 07:18:21;;;;;;;16.00;6.83;;;;;;;;;;4990865;28;20312;-78
2022/02/24 07:20:48;;;;;;;11.43;4.63;;;;;;;;;;4991093;28;20233;-79
2022/02/24 07:23:15;;;;;;;14.67;4.63;;;;;;;;;;4990382;28;20311;-79
2022/02/24 07:25:43;;;;;;;13.37;6.27;;;;;;;;;;4990861;28;20205;-80
2022/02/24 07:28:10;;;;;;;13.40;5.27;;;;;;;;;;4992010;28;20236;-80
2022/02/24 07:30:39;;;;;;;10.57;3.67;;;;;;;;;;4991511;28;20263;-80
2022/02/24 07:33:06;;;;;;;11.27;3.10;;;;;;;;;;4988435;28;20240;-80
2022/02/24 07:35:33;;;;;;;5.83;2.17;;;;;;;;;;4989234;28;20268;-79
2022/02/24 07:38:01;;;;;;;7.10;2.57;;;;;;;;;;4989914;28;20233;-80
2022/02/24 07:40:28;;;;;;;9.57;2.03;;;;;;;;;;4987007;28;20256;-78
2022/02/24 07:42:55;;;;;;;8.07;1.87;;;;;;;;;;4989694;28;20229;-79
2022/02/24 07:45:22;;;;;;;4.57;1.97;;;;;;;;;;4989706;28;20276;-80
2022/02/24 07:47:51;;;;;;;2.67;1.50;;;;;;;;;;4985314;28;20206;-80
2022/02/24 07:50:18;;;;;;;6.70;1.77;;;;;;;;;;4979596;28;21301;-80
2022/02/24 07:52:46;;;;;;;6.97;1.77;;;;;;;;;;4994196;28;20235;-78
2022/02/24 07:55:14;;;;;;;4.97;1.63;;;;;;;;;;4997447;28;20225;-79
2022/02/24 07:57:41;;;;;;;5.97;1.60;;;;;;;;;;4988311;28;20591;-78
2022/02/24 08:00:13;;;;;;;4.87;1.63;;;;;;;;;;4989422;28;20221;-78
2022/02/24 08:02:40;;;;;;;6.67;1.50;;;;;;;;;;4992059;28;20229;-79
2022/02/24 08:05:09;;;;;;;5.60;1.73;;;;;;;;;;4991841;28;20300;-79
2022/02/24 08:07:36;;;;;;;7.87;1.70;;;;;;;;;;4989054;28;20212;-79
2022/02/24 08:10:04;;;;;;;4.87;1.73;;;;;;;;;;4987155;28;20209;-80
2022/02/24 08:12:40;;;;;;;4.60;1.80;;;;;;;;;;4984610;28;20409;-79
2022/02/24 08:15:07;;;;;;;6.90;1.70;;;;;;;;;;4986781;28;20670;-79
2022/02/24 08:17:35;;;;;;;3.77;1.53;;;;;;;;;;4989493;28;20224;-80
2022/02/24 08:20:05;;;;;;;3.73;1.50;;;;;;;;;;4991411;28;20222;-81
2022/02/24 08:22:33;;;;;;;5.60;1.60;;;;;;;;;;4986511;28;20217;-81
2022/02/24 08:25:00;;;;;;;5.63;1.80;;;;;;;;;;4987235;28;20209;-79
2022/02/24 08:27:28;;;;;;;3.77;1.73;;;;;;;;;;4989593;28;20568;-81
2022/02/24 08:29:56;;;;;;;4.93;1.60;;;;;;;;;;4989805;28;20248;-80
2022/02/24 08:32:24;;;;;;;4.03;1.67;;;;;;;;;;4990362;28;20267;-81
2022/02/24 08:34:51;;;;;;;6.27;1.40;;;;;;;;;;4990598;28;20216;-79
2022/02/24 08:37:18;;;;;;;6.63;1.90;;;;;;;;;;4992058;28;20209;-81
2022/02/24 08:39:47;;;;;;;5.53;1.60;;;;;;;;;;4981180;28;20739;-79
2022/02/24 08:42:14;;;;;;;4.83;1.60;;;;;;;;;;4987295;28;20235;-81
2022/02/24 08:44:43;;;;;;;6.10;1.70;;;;;;;;;;4989770;28;20631;-79
2022/02/24 08:47:11;;;;;;;7.13;1.80;;;;;;;;;;4992687;28;20224;-81
2022/02/24 08:49:38;;;;;;;8.23;1.90;;;;;;;;;;4991799;28;20296;-79
2022/02/24 08:52:08;;;;;;;8.97;1.90;;;;;;;;;;4987850;28;20225;-78
2022/02/24 08:54:35;;;;;;;7.60;1.80;;;;;;;;;;4982274;28;20206;-79
2022/02/24 08:57:04;;;;;;;4.70;1.80;;;;;;;;;;4992359;28;20201;-80
2022/02/24 08:59:32;;;;;;;10.77;2.00;;;;;;;;;;4988014;28;20274;-81
2022/02/24 09:01:59;;;;;;;8.33;2.30;;;;;;;;;;4990800;28;20245;-80
2022/02/24 09:04:26;;;;;;;5.93;2.00;;;;;;;;;;4990425;28;20223;-79
2022/02/24 09:06:53;;;;;;;6.33;2.20;;;;;;;;;;4989644;28;20295;-79
2022/02/24 09:09:23;;;;;;;5.60;2.20;;;;;;;;;;4988618;28;20272;-79
2022/02/24 09:11:50;;;;;;;6.37;2.10;;;;;;;;;;4986826;28;20271;-78
2022/02/24 09:14:18;;;;;;;6.20;2.10;;;;;;;;;;4983325;28;20236;-78
2022/02/24 09:16:46;;;;;;;8.40;2.47;;;;;;;;;;4991564;28;20216;-79
2022/02/24 09:19:13;;;;;;;8.93;1.97;;;;;;;;;;4983946;28;20662;-80
2022/02/24 09:21:41;;;;;;;7.67;2.20;;;;;;;;;;4987518;28;20225;-80
2022/02/24 09:24:08;;;;;;;6.03;2.27;;;;;;;;;;4984148;28;20205;-81
2022/02/24 09:26:36;;;;;;;7.83;2.07;;;;;;;;;;4988733;28;20233;-78
2022/02/24 09:29:04;;;;;;;4.40;1.87;;;;;;;;;;4988617;28;20205;-79
2022/02/24 09:31:35;;;;;;;10.10;2.33;;;;;;;;;;4987166;28;20311;-79
2022/02/24 09:34:02;;;;;;;5.67;2.23;;;;;;;;;;4987562;28;20209;-80
2022/02/24 09:36:29;;;;;;;7.67;2.37;;;;;;;;;;4986939;28;20201;-79
2022/02/24 09:38:57;;;;;;;4.87;1.70;;;;;;;;;;4984596;28;20209;-80
2022/02/24 09:41:25;;;;;;;6.67;2.37;;;;;;;;;;4991440;28;20316;-80
2022/02/24 09:43:52;;;;;;;5.57;2.37;;;;;;;;;;4984330;28;20307;-81
2022/02/24 09:46:20;;;;;;;5.90;2.10;;;;;;;;;;4986193;28;20209;-79
2022/02/24 09:48:48;;;;;;;8.63;2.67;;;;;;;;;;4988299;28;20209;-79
2022/02/24 09:51:17;;;;;;;7.43;1.83;;;;;;;;;;4985266;28;20304;-79
2022/02/24 09:53:44;;;;;;;4.57;2.00;;;;;;;;;;4984589;28;20217;-80
2022/02/24 09:56:15;;;;;;;11.00;2.20;;;;;;;;;;4987367;28;20245;-78
2022/02/24 09:58:42;;;;;;;4.20;1.63;;;;;;;;;;4992467;28;20810;-76
2022/02/24 10:01:12;;;;;;;7.73;2.10;;;;;;;;;;4992257;28;20287;-80
2022/02/24 10:03:41;;;;;;;6.87;2.13;;;;;;;;;;4994718;28;20240;-81
2022/02/24 10:06:11;;;;;;;4.80;2.10;;;;;;;;;;4994485;28;20580;-79
2022/02/24 10:08:40;;;;;;;8.30;2.20;;;;;;;;;;4991904;28;20241;-79
2022/02/24 10:11:16;;;;;;;8.27;2.37;;;;;;;;;;4993703;28;20232;-81
2022/02/24 10:14:09;;;;;;;5.20;1.83;;;;;;;;;;4995411;28;20232;-82
2022/02/24 10:16:53;;;;;;;4.90;2.03;;;;;;;;;;4993127;28;20237;-79
2022/02/24 10:19:27;;;;;;;5.93;1.90;;;;;;;;;;4994221;28;20249;-79
2022/02/24 10:22:15;;;;;;;6.73;2.27;;;;;;;;;;4994858;28;20240;-82
2022/02/24 10:24:43;;;;;;;8.20;2.03;;;;;;;;;;4994009;28;20240;-81
2022/02/24 10:27:21;;;;;;;5.73;1.97;;;;;;;;;;4994691;28;20255;-79
2022/02/24 10:30:09;;;;;;;4.17;1.73;;;;;;;;;;4989590;28;20770;-81
2022/02/24 10:32:37;;;;;;;7.27;2.20;;;;;;;;;;4986312;28;20257;-79
2022/02/24 10:35:21;;;;;;;8.53;2.20;;;;;;;;;;4995594;28;20208;-78
2022/02/24 10:37:53;;;;;;;6.37;2.30;;;;;;;;;;4994448;28;20217;-82
2022/02/24 10:40:20;;;;;;;9.37;2.40;;;;;;;;;;4996465;28;20217;-81
2022/02/24 10:42:48;;;;;;;5.03;2.37;;;;;;;;;;5000753;28;20229;-81
2022/02/24 10:45:28;;;;;;;4.87;2.10;;;;;;;;;;5005669;28;20217;-81
2022/02/24 10:47:56;;;;;;;7.23;2.40;;;;;;;;;;5004942;28;20509;-80
2022/02/24 10:50:44;;;;;;;6.13;2.60;;;;;;;;;;5003563;28;20219;-81
2022/02/24 10:53:13;;;;;;;4.93;2.03;;;;;;;;;;5004641;28;20225;-80
2022/02/24 10:55:53;;;;;;;9.33;2.20;;;;;;;;;;5005604;28;20212;-80
2022/02/24 10:58:31;;;;;;;;;;;;;;;;;;;;;
2022/02/24 11:01:07;;;;;;;4.60;1.90;;;;;;;;;;4998638;28;20224;-80
2022/02/24 11:03:34;;;;;;;10.27;2.37;;;;;;;;;;4994818;28;20220;-81
2022/02/24 11:06:03;;;;;;;3.20;2.00;;;;;;;;;;4997673;28;20436;-79
2022/02/24 11:08:33;;;;;;;6.57;2.13;;;;;;;;;;4995136;28;20237;-80
2022/02/24 11:11:00;;;;;;;3.80;1.70;;;;;;;;;;4997775;28;20240;-79
2022/02/24 11:13:28;;;;;;;5.50;1.80;;;;;;;;;;4991492;28;20208;-80
2022/02/24 11:15:55;;;;;;;5.17;1.90;;;;;;;;;;4987487;28;20231;-79
2022/02/24 11:18:23;;;;;;;6.90;1.87;;;;;;;;;;4988597;28;20201;-78
2022/02/24 11:20:51;;;;;;;6.90;1.93;;;;;;;;;;4989322;28;20522;-80
2022/02/24 11:23:18;;;;;;;6.70;2.07;;;;;;;;;;4988763;28;20621;-78
2022/02/24 11:25:52;;;;;;;5.03;2.20;;;;;;;;;;4984945;28;20213;-77
2022/02/24 11:28:21;;;;;;;5.70;1.80;;;;;;;;;;4985337;28;20217;-78
2022/02/24 11:30:51;;;;;;;5.87;2.03;;;;;;;;;;4983938;28;20257;-80
2022/02/24 11:33:19;;;;;;;5.83;2.00;;;;;;;;;;4993868;28;20269;-81
2022/02/24 11:35:46;;;;;;;3.57;2.07;;;;;;;;;;4994123;28;20205;-79
2022/02/24 11:38:15;;;;;;;6.00;2.23;;;;;;;;;;4991329;28;20867;-78
2022/02/24 11:40:42;;;;;;;13.53;2.33;;;;;;;;;;4989811;28;20225;-78
2022/02/24 11:43:13;;;;;;;5.20;1.80;;;;;;;;;;4989692;28;20233;-79
2022/02/24 11:45:40;;;;;;;6.60;2.17;;;;;;;;;;4998134;28;20328;-77
2022/02/24 11:48:09;;;;;;;5.67;2.10;;;;;;;;;;4989199;28;20243;-78
2022/02/24 11:50:39;;;;;;;7.23;1.93;;;;;;;;;;4991812;28;20262;-79
2022/02/24 11:53:07;;;;;;;5.20;2.03;;;;;;;;;;4990650;28;20751;-78
2022/02/24 11:55:55;;;;;;;4.33;1.57;;;;;;;;;;4985934;28;20206;-79
2022/02/24 11:58:46;;;;;;;5.63;1.90;;;;;;;;;;4988165;28;20774;-79
2022/02/24 12:01:25;;;;;;;5.27;2.50;;;;;;;;;;4988671;28;20225;-79
2022/02/24 12:04:09;;;;;;;8.77;2.10;;;;;;;;;;4987808;28;20685;-80
2022/02/24 12:06:38;;;;;;;10.90;3.67;;;;;;;;;;4993774;28;20208;-78
2022/02/24 12:09:13;;;;;;;6.03;2.20;;;;;;;;;;4999851;28;20220;-81
2022/02/24 12:11:41;;;;;;;6.33;2.60;;;;;;;;;;4996176;28;20228;-81
2022/02/24 12:14:09;;;;;;;6.37;2.43;;;;;;;;;;4997517;28;20237;-80
2022/02/24 12:16:38;;;;;;;11.87;2.50;;;;;;;;;;4998420;28;20247;-80
2022/02/24 12:19:05;;;;;;;5.40;2.63;;;;;;;;;;4990064;28;20210;-79
2022/02/24 12:21:33;;;;;;;6.60;2.00;;;;;;;;;;4993500;28;20343;-78
2022/02/24 12:24:02;;;;;;;4.97;1.90;;;;;;;;;;4990373;28;20212;-80
2022/02/24 12:26:39;;;;;;;6.20;2.27;;;;;;;;;;4992322;28;20333;-80
2022/02/24 12:29:19;;;;;;;8.57;2.53;;;;;;;;;;4991844;28;20311;-78
2022/02/24 12:31:50;;;;;;;6.27;1.93;;;;;;;;;;4992866;28;20225;-79
2022/02/24 12:34:17;;;;;;;4.93;1.83;;;;;;;;;;4997357;28;20212;-80
2022/02/24 12:36:44;;;;;;;4.63;2.20;;;;;;;;;;4989058;28;20795;-80
2022/02/24 12:39:11;;;;;;;5.50;2.07;;;;;;;;;;4992148;28;20763;-81
2022/02/24 12:41:40;;;;;;;3.83;1.63;;;;;;;;;;4994263;28;20773;-80
2022/02/24 12:46:45;;;;;;;4.80;1.73;;;;;;;;;;5005870;28;20256;-84
2022/02/24 12:49:22;;;;;;;3.93;1.40;;;;;;;;;;5010942;28;20221;-86
2022/02/24 12:51:56;;;;;;;4.43;1.43;;;;;;;;;;5012447;28;20654;-85
2022/02/24 12:54:25;;;;;;;6.47;1.43;;;;;;;;;;5011676;28;20640;-84
2022/02/24 12:56:53;;;;;;;3.17;1.30;;;;;;;;;;5007523;28;20280;-85
2022/02/24 12:59:20;;;;;;;3.80;1.60;;;;;;;;;;5013661;28;20220;-86
2022/02/24 13:01:52;;;;;;;3.60;1.50;;;;;;;;;;5007805;28;20909;-85
2022/02/24 13:04:21;;;;;;;4.30;1.27;;;;;;;;;;5012847;28;20212;-85
2022/02/24 13:06:49;;;;;;;7.80;2.23;;;;;;;;;;5014694;28;20274;-85
2022/02/24 13:12:02;;;;;;;6.87;2.10;;;;;;;;;;5011885;28;20207;-85
2022/02/24 13:14:29;;;;;;;14.77;5.00;;;;;;;;;;5005421;28;20236;-84
2022/02/24 13:16:57;;;;;;;8.67;2.50;;;;;;;;;;5009099;28;20258;-85
2022/02/24 13:19:26;;;;;;;4.83;2.20;;;;;;;;;;5008141;28;20217;-85
2022/02/24 13:21:58;;;;;;;2.73;1.50;;;;;;;;;;5009853;28;20220;-86
2022/02/24 13:24:31;;;;;;;10.57;2.60;;;;;;;;;;4992732;28;20201;-86
2022/02/24 13:26:59;;;;;;;8.83;3.17;;;;;;;;;;5005075;28;20231;-86
2022/02/24 13:32:13;;;;;;;9.63;2.90;;;;;;;;;;5007038;28;20631;-86
2022/02/24 13:34:43;;;;;;;4.00;1.77;;;;;;;;;;5008020;28;20342;-85
2022/02/24 13:37:13;;;;;;;5.50;2.80;;;;;;;;;;5007669;28;20224;-85
2022/02/24 13:39:47;;;;;;;3.10;1.60;;;;;;;;;;5010915;28;20523;-86
2022/02/24 13:42:19;;;;;;;3.97;1.47;;;;;;;;;;5004684;28;20220;-85
2022/02/24 13:44:48;;;;;;;4.50;1.93;;;;;;;;;;5007684;28;20263;-86
2022/02/24 13:47:22;;;;;;;5.10;1.20;;;;;;;;;;5007137;28;20216;-85
2022/02/24 13:49:51;;;;;;;6.80;2.00;;;;;;;;;;5001788;28;20266;-85
2022/02/24 13:52:25;;;;;;;6.73;2.60;;;;;;;;;;5006721;28;20258;-85
2022/02/24 13:55:00;;;;;;;7.90;2.60;;;;;;;;;;5003932;28;20239;-85
2022/02/24 13:57:28;;;;;;;5.70;2.07;;;;;;;;;;5001523;28;20212;-85
2022/02/24 14:00:22;;;;;;;2.43;1.10;;;;;;;;;;5001501;28;20248;-84
2022/02/24 14:02:51;;;;;;;6.53;1.73;;;;;;;;;;4979902;28;20232;-85
2022/02/24 14:05:20;;;;;;;12.70;3.90;;;;;;;;;;5015200;28;20224;-85
2022/02/24 14:07:48;;;;;;;3.27;1.57;;;;;;;;;;5012471;28;20220;-82
2022/02/24 14:10:15;;;;;;;3.03;1.40;;;;;;;;;;5016434;28;20247;-85
2022/02/24 14:12:43;;;;;;;3.60;1.20;;;;;;;;;;5015130;28;20208;-85
2022/02/24 14:15:11;;;;;;;5.27;2.07;;;;;;;;;;5028968;28;20324;-85
2022/02/24 14:17:38;;;;;;;2.90;1.13;;;;;;;;;;5010582;28;20205;-85
2022/02/24 14:20:13;;;;;;;4.27;1.57;;;;;;;;;;5060350;23;20235;-80
2022/02/24 14:22:42;;;;;;;4.57;1.20;;;;;;;;;;5008221;28;20227;-80
2022/02/24 14:25:09;;;;;;;2.37;1.17;;;;;;;;;;5001799;28;20264;-80
2022/02/24 14:27:37;;;;;;;2.77;1.10;;;;;;;;;;5004140;28;20235;-80
2022/02/24 14:30:04;;;;;;;3.13;1.07;;;;;;;;;;5001190;28;20769;-80
2022/02/24 14:32:32;;;;;;;3.07;1.30;;;;;;;;;;4999089;28;20269;-80
2022/02/24 14:34:59;;;;;;;4.40;1.00;;;;;;;;;;5002105;28;20295;-80
2022/02/24 14:37:26;;;;;;;5.67;1.30;;;;;;;;;;5002857;28;20217;-80
2022/02/24 14:39:55;;;;;;;3.97;1.80;;;;;;;;;;5002725;28;20212;-79
2022/02/24 14:42:28;;;;;;;7.33;1.43;;;;;;;;;;5004167;28;20225;-79
2022/02/24 14:44:55;;;;;;;6.13;4.00;;;;;;;;;;5007707;28;20232;-80
2022/02/24 14:47:23;;;;;;;4.83;2.50;;;;;;;;;;5010877;28;20217;-79
2022/02/24 14:49:50;;;;;;;3.63;1.70;;;;;;;;;;5003657;28;20212;-78
2022/02/24 14:52:17;;;;;;;5.00;1.10;;;;;;;;;;5011990;28;20218;-79
2022/02/24 14:54:44;;;;;;;3.27;1.40;;;;;;;;;;5007395;28;20218;-79
2022/02/24 14:57:15;;;;;;;2.13;0.93;;;;;;;;;;5015677;28;20248;-78